sensor_id;sensor_type;location;lat;lon;timestamp;P1;durP1;ratioP1;P2;durP2;ratioP2
50968;SDS011;36982;51.474;7.228;2023-04-01T00:02:06;3.40;;;0.90;;
50968;SDS011;36982;51.474;7.228;2023-04-01T00:04:32;2.60;;;0.90;;
50968;SDS011;36982;51.474;7.228;2023-04-01T00:06:58;2.80;;;1.20;;
50968;SDS011;36982;51.474;7.228;2023-04-01T00:09:25;3.33;;;1.43;;
50968;SDS011;36982;51.474;7.228;2023-04-01T00:11:50;1.97;;;1.00;;
50968;SDS011;36982;51.474;7.228;2023-04-01T00:14:16;4.60;;;1.10;;
50968;SDS011;36982;51.474;7.228;2023-04-01T00:16:42;5.70;;;1.47;;
50968;SDS011;36982;51.474;7.228;2023-04-01T00:19:07;3.57;;;1.00;;
50968;SDS011;36982;51.474;7.228;2023-04-01T00:21:33;4.90;;;1.40;;
50968;SDS011;36982;51.474;7.228;2023-04-01T00:23:59;2.53;;;1.10;;
50968;SDS011;36982;51.474;7.228;2023-04-01T00:26:25;3.40;;;1.20;;
50968;SDS011;36982;51.474;7.228;2023-04-01T00:28:51;4.33;;;1.60;;
50968;SDS011;36982;51.474;7.228;2023-04-01T00:31:17;2.43;;;0.90;;
50968;SDS011;36982;51.474;7.228;2023-04-01T00:33:42;3.53;;;1.00;;
50968;SDS011;36982;51.474;7.228;2023-04-01T00:36:12;4.03;;;1.27;;
50968;SDS011;36982;51.474;7.228;2023-04-01T00:38:39;4.50;;;1.60;;
50968;SDS011;36982;51.474;7.228;2023-04-01T00:41:06;2.13;;;1.20;;
50968;SDS011;36982;51.474;7.228;2023-04-01T00:43:32;2.97;;;1.20;;
50968;SDS011;36982;51.474;7.228;2023-04-01T00:45:58;2.77;;;1.33;;
50968;SDS011;36982;51.474;7.228;2023-04-01T00:48:26;4.23;;;1.40;;
50968;SDS011;36982;51.474;7.228;2023-04-01T00:51:06;2.57;;;1.30;;
50968;SDS011;36982;51.474;7.228;2023-04-01T00:53:34;4.33;;;1.20;;
50968;SDS011;36982;51.474;7.228;2023-04-01T00:56:06;4.10;;;1.20;;
50968;SDS011;36982;51.474;7.228;2023-04-01T00:58:37;2.60;;;1.30;;
50968;SDS011;36982;51.474;7.228;2023-04-01T01:01:08;3.50;;;1.20;;
50968;SDS011;36982;51.474;7.228;2023-04-01T01:03:34;1.93;;;0.80;;
50968;SDS011;36982;51.474;7.228;2023-04-01T01:08:35;2.93;;;1.30;;
50968;SDS011;36982;51.474;7.228;2023-04-01T01:11:05;3.57;;;1.53;;
50968;SDS011;36982;51.474;7.228;2023-04-01T01:13:36;1.63;;;1.20;;
50968;SDS011;36982;51.474;7.228;2023-04-01T01:24:54;2.13;;;1.10;;
50968;SDS011;36982;51.474;7.228;2023-04-01T01:27:34;1.57;;;1.30;;
50968;SDS011;36982;51.474;7.228;2023-04-01T01:33:06;2.70;;;1.10;;
50968;SDS011;36982;51.474;7.228;2023-04-01T01:35:51;2.77;;;1.33;;
50968;SDS011;36982;51.474;7.228;2023-04-01T01:38:21;1.50;;;1.40;;
50968;SDS011;36982;51.474;7.228;2023-04-01T01:40:50;1.80;;;1.20;;
50968;SDS011;36982;51.474;7.228;2023-04-01T01:43:19;4.30;;;1.60;;
50968;SDS011;36982;51.474;7.228;2023-04-01T01:45:49;2.60;;;1.77;;
50968;SDS011;36982;51.474;7.228;2023-04-01T01:48:22;2.33;;;1.17;;
50968;SDS011;36982;51.474;7.228;2023-04-01T01:50:49;2.40;;;1.10;;
50968;SDS011;36982;51.474;7.228;2023-04-01T01:53:15;2.53;;;1.23;;
50968;SDS011;36982;51.474;7.228;2023-04-01T01:55:44;2.90;;;1.40;;
50968;SDS011;36982;51.474;7.228;2023-04-01T02:00:41;1.17;;;1.07;;
50968;SDS011;36982;51.474;7.228;2023-04-01T02:03:12;1.60;;;1.10;;
50968;SDS011;36982;51.474;7.228;2023-04-01T02:05:39;2.50;;;1.00;;
50968;SDS011;36982;51.474;7.228;2023-04-01T02:08:12;2.93;;;1.00;;
50968;SDS011;36982;51.474;7.228;2023-04-01T02:10:44;3.43;;;1.10;;
50968;SDS011;36982;51.474;7.228;2023-04-01T02:13:20;2.07;;;1.30;;
50968;SDS011;36982;51.474;7.228;2023-04-01T02:15:52;2.33;;;1.30;;
50968;SDS011;36982;51.474;7.228;2023-04-01T02:18:22;3.30;;;1.20;;
50968;SDS011;36982;51.474;7.228;2023-04-01T02:20:47;1.87;;;1.00;;
50968;SDS011;36982;51.474;7.228;2023-04-01T02:23:14;1.83;;;1.27;;
50968;SDS011;36982;51.474;7.228;2023-04-01T02:25:41;4.50;;;1.00;;
50968;SDS011;36982;51.474;7.228;2023-04-01T02:28:07;1.50;;;0.90;;
50968;SDS011;36982;51.474;7.228;2023-04-01T02:30:36;1.80;;;1.00;;
50968;SDS011;36982;51.474;7.228;2023-04-01T02:33:05;2.87;;;1.03;;
50968;SDS011;36982;51.474;7.228;2023-04-01T02:35:32;1.77;;;1.10;;
50968;SDS011;36982;51.474;7.228;2023-04-01T02:38:02;2.87;;;1.10;;
50968;SDS011;36982;51.474;7.228;2023-04-01T02:40:28;3.03;;;1.53;;
50968;SDS011;36982;51.474;7.228;2023-04-01T02:42:54;3.60;;;1.20;;
50968;SDS011;36982;51.474;7.228;2023-04-01T02:45:19;2.00;;;1.00;;
50968;SDS011;36982;51.474;7.228;2023-04-01T02:47:45;2.10;;;1.00;;
50968;SDS011;36982;51.474;7.228;2023-04-01T02:50:11;1.40;;;1.00;;
50968;SDS011;36982;51.474;7.228;2023-04-01T02:52:36;3.47;;;1.20;;
50968;SDS011;36982;51.474;7.228;2023-04-01T02:55:03;1.93;;;0.90;;
50968;SDS011;36982;51.474;7.228;2023-04-01T02:57:29;1.90;;;0.93;;
50968;SDS011;36982;51.474;7.228;2023-04-01T02:59:55;2.30;;;0.93;;
50968;SDS011;36982;51.474;7.228;2023-04-01T03:02:20;1.93;;;0.90;;
50968;SDS011;36982;51.474;7.228;2023-04-01T03:04:46;1.93;;;0.90;;
50968;SDS011;36982;51.474;7.228;2023-04-01T03:07:12;3.20;;;1.00;;
50968;SDS011;36982;51.474;7.228;2023-04-01T03:09:38;1.77;;;0.90;;
50968;SDS011;36982;51.474;7.228;2023-04-01T03:12:04;1.27;;;0.90;;
50968;SDS011;36982;51.474;7.228;2023-04-01T03:14:29;1.10;;;0.77;;
50968;SDS011;36982;51.474;7.228;2023-04-01T03:16:55;2.07;;;0.70;;
50968;SDS011;36982;51.474;7.228;2023-04-01T03:19:21;2.23;;;1.00;;
50968;SDS011;36982;51.474;7.228;2023-04-01T03:21:46;1.43;;;0.93;;
50968;SDS011;36982;51.474;7.228;2023-04-01T03:24:12;0.97;;;0.70;;
50968;SDS011;36982;51.474;7.228;2023-04-01T03:26:37;2.13;;;0.83;;
50968;SDS011;36982;51.474;7.228;2023-04-01T03:29:03;1.60;;;0.80;;
50968;SDS011;36982;51.474;7.228;2023-04-01T03:31:29;3.40;;;1.00;;
50968;SDS011;36982;51.474;7.228;2023-04-01T03:33:55;1.13;;;0.70;;
50968;SDS011;36982;51.474;7.228;2023-04-01T03:36:20;2.27;;;0.80;;
50968;SDS011;36982;51.474;7.228;2023-04-01T03:38:46;1.37;;;0.70;;
50968;SDS011;36982;51.474;7.228;2023-04-01T03:41:12;1.23;;;0.60;;
50968;SDS011;36982;51.474;7.228;2023-04-01T03:43:39;1.47;;;0.60;;
50968;SDS011;36982;51.474;7.228;2023-04-01T03:46:05;0.50;;;0.50;;
50968;SDS011;36982;51.474;7.228;2023-04-01T03:48:31;1.23;;;0.70;;
50968;SDS011;36982;51.474;7.228;2023-04-01T03:50:56;0.73;;;0.70;;
50968;SDS011;36982;51.474;7.228;2023-04-01T03:53:22;2.80;;;0.80;;
50968;SDS011;36982;51.474;7.228;2023-04-01T03:55:47;1.07;;;0.70;;
50968;SDS011;36982;51.474;7.228;2023-04-01T03:58:13;0.70;;;0.60;;
50968;SDS011;36982;51.474;7.228;2023-04-01T04:00:39;1.00;;;0.70;;
50968;SDS011;36982;51.474;7.228;2023-04-01T04:03:05;1.67;;;0.80;;
50968;SDS011;36982;51.474;7.228;2023-04-01T04:05:31;1.73;;;0.77;;
50968;SDS011;36982;51.474;7.228;2023-04-01T04:07:57;2.03;;;0.77;;
50968;SDS011;36982;51.474;7.228;2023-04-01T04:10:23;1.07;;;0.77;;
50968;SDS011;36982;51.474;7.228;2023-04-01T04:12:49;0.70;;;0.60;;
50968;SDS011;36982;51.474;7.228;2023-04-01T04:15:16;1.47;;;0.70;;
50968;SDS011;36982;51.474;7.228;2023-04-01T04:17:41;0.90;;;0.70;;
50968;SDS011;36982;51.474;7.228;2023-04-01T04:20:07;1.37;;;0.87;;
50968;SDS011;36982;51.474;7.228;2023-04-01T04:22:33;1.80;;;0.77;;
50968;SDS011;36982;51.474;7.228;2023-04-01T04:24:59;1.43;;;0.77;;
50968;SDS011;36982;51.474;7.228;2023-04-01T04:27:25;1.47;;;0.60;;
50968;SDS011;36982;51.474;7.228;2023-04-01T04:29:50;0.83;;;0.77;;
50968;SDS011;36982;51.474;7.228;2023-04-01T04:32:16;0.93;;;0.80;;
50968;SDS011;36982;51.474;7.228;2023-04-01T04:34:42;2.83;;;1.10;;
50968;SDS011;36982;51.474;7.228;2023-04-01T04:37:07;0.80;;;0.80;;
50968;SDS011;36982;51.474;7.228;2023-04-01T04:39:33;2.10;;;0.83;;
50968;SDS011;36982;51.474;7.228;2023-04-01T04:41:58;2.30;;;1.00;;
50968;SDS011;36982;51.474;7.228;2023-04-01T04:44:24;0.80;;;0.67;;
50968;SDS011;36982;51.474;7.228;2023-04-01T04:46:49;1.10;;;0.80;;
50968;SDS011;36982;51.474;7.228;2023-04-01T04:49:15;1.40;;;0.80;;
50968;SDS011;36982;51.474;7.228;2023-04-01T04:51:41;1.17;;;0.83;;
50968;SDS011;36982;51.474;7.228;2023-04-01T04:54:06;1.07;;;0.90;;
50968;SDS011;36982;51.474;7.228;2023-04-01T04:56:32;0.90;;;0.70;;
50968;SDS011;36982;51.474;7.228;2023-04-01T04:58:58;1.47;;;1.07;;
50968;SDS011;36982;51.474;7.228;2023-04-01T05:01:24;0.83;;;0.80;;
50968;SDS011;36982;51.474;7.228;2023-04-01T05:03:50;1.50;;;0.90;;
50968;SDS011;36982;51.474;7.228;2023-04-01T05:06:16;0.93;;;0.80;;
50968;SDS011;36982;51.474;7.228;2023-04-01T05:08:43;2.00;;;0.70;;
50968;SDS011;36982;51.474;7.228;2023-04-01T05:11:11;1.20;;;0.60;;
50968;SDS011;36982;51.474;7.228;2023-04-01T05:13:38;0.67;;;0.57;;
50968;SDS011;36982;51.474;7.228;2023-04-01T05:16:07;1.37;;;0.90;;
50968;SDS011;36982;51.474;7.228;2023-04-01T05:18:37;1.37;;;0.70;;
50968;SDS011;36982;51.474;7.228;2023-04-01T05:21:03;1.97;;;0.90;;
50968;SDS011;36982;51.474;7.228;2023-04-01T05:23:30;1.10;;;0.70;;
50968;SDS011;36982;51.474;7.228;2023-04-01T05:25:56;0.80;;;0.70;;
50968;SDS011;36982;51.474;7.228;2023-04-01T05:28:22;1.30;;;0.57;;
50968;SDS011;36982;51.474;7.228;2023-04-01T05:30:47;0.80;;;0.80;;
50968;SDS011;36982;51.474;7.228;2023-04-01T05:33:13;0.70;;;0.70;;
50968;SDS011;36982;51.474;7.228;2023-04-01T05:35:39;1.93;;;1.03;;
50968;SDS011;36982;51.474;7.228;2023-04-01T05:38:05;1.20;;;0.80;;
50968;SDS011;36982;51.474;7.228;2023-04-01T05:40:31;1.73;;;1.20;;
50968;SDS011;36982;51.474;7.228;2023-04-01T05:42:58;1.27;;;1.07;;
50968;SDS011;36982;51.474;7.228;2023-04-01T05:45:23;1.27;;;0.90;;
50968;SDS011;36982;51.474;7.228;2023-04-01T05:47:49;1.77;;;0.93;;
50968;SDS011;36982;51.474;7.228;2023-04-01T05:50:15;1.00;;;0.80;;
50968;SDS011;36982;51.474;7.228;2023-04-01T05:52:41;1.93;;;1.03;;
50968;SDS011;36982;51.474;7.228;2023-04-01T05:55:07;0.93;;;0.90;;
50968;SDS011;36982;51.474;7.228;2023-04-01T05:57:33;1.63;;;1.17;;
50968;SDS011;36982;51.474;7.228;2023-04-01T05:59:59;2.53;;;1.13;;
50968;SDS011;36982;51.474;7.228;2023-04-01T06:02:24;1.30;;;1.20;;
50968;SDS011;36982;51.474;7.228;2023-04-01T06:04:51;1.30;;;1.10;;
50968;SDS011;36982;51.474;7.228;2023-04-01T06:07:26;1.30;;;1.17;;
50968;SDS011;36982;51.474;7.228;2023-04-01T06:09:53;1.33;;;1.10;;
50968;SDS011;36982;51.474;7.228;2023-04-01T06:29:01;2.10;;;1.20;;
50968;SDS011;36982;51.474;7.228;2023-04-01T06:40:05;3.00;;;1.43;;
50968;SDS011;36982;51.474;7.228;2023-04-01T06:45:41;2.30;;;1.30;;
50968;SDS011;36982;51.474;7.228;2023-04-01T06:48:37;1.30;;;1.00;;
50968;SDS011;36982;51.474;7.228;2023-04-01T06:53:48;1.50;;;1.20;;
50968;SDS011;36982;51.474;7.228;2023-04-01T06:56:16;1.20;;;1.10;;
50968;SDS011;36982;51.474;7.228;2023-04-01T06:58:48;2.00;;;1.30;;
50968;SDS011;36982;51.474;7.228;2023-04-01T07:01:26;2.50;;;1.27;;
50968;SDS011;36982;51.474;7.228;2023-04-01T07:04:06;1.60;;;1.40;;
50968;SDS011;36982;51.474;7.228;2023-04-01T07:06:48;2.67;;;1.37;;
50968;SDS011;36982;51.474;7.228;2023-04-01T07:09:27;3.83;;;1.70;;
50968;SDS011;36982;51.474;7.228;2023-04-01T07:12:11;2.83;;;1.50;;
50968;SDS011;36982;51.474;7.228;2023-04-01T07:14:44;2.37;;;1.50;;
50968;SDS011;36982;51.474;7.228;2023-04-01T07:20:04;1.70;;;1.60;;
50968;SDS011;36982;51.474;7.228;2023-04-01T07:22:44;2.80;;;1.60;;
50968;SDS011;36982;51.474;7.228;2023-04-01T07:27:47;1.70;;;1.47;;
50968;SDS011;36982;51.474;7.228;2023-04-01T07:33:17;2.53;;;2.10;;
50968;SDS011;36982;51.474;7.228;2023-04-01T07:35:55;2.93;;;1.70;;
50968;SDS011;36982;51.474;7.228;2023-04-01T07:41:11;2.80;;;1.30;;
50968;SDS011;36982;51.474;7.228;2023-04-01T07:43:54;2.17;;;1.60;;
50968;SDS011;36982;51.474;7.228;2023-04-01T07:46:44;2.20;;;1.37;;
50968;SDS011;36982;51.474;7.228;2023-04-01T07:52:40;3.20;;;1.80;;
50968;SDS011;36982;51.474;7.228;2023-04-01T07:55:24;1.97;;;1.40;;
50968;SDS011;36982;51.474;7.228;2023-04-01T07:58:02;1.53;;;1.20;;
50968;SDS011;36982;51.474;7.228;2023-04-01T08:00:42;1.73;;;1.40;;
50968;SDS011;36982;51.474;7.228;2023-04-01T08:03:31;1.67;;;1.40;;
50968;SDS011;36982;51.474;7.228;2023-04-01T08:08:59;2.13;;;1.70;;
50968;SDS011;36982;51.474;7.228;2023-04-01T08:22:28;2.00;;;1.57;;
50968;SDS011;36982;51.474;7.228;2023-04-01T08:24:58;3.83;;;1.47;;
50968;SDS011;36982;51.474;7.228;2023-04-01T08:27:37;2.00;;;1.80;;
50968;SDS011;36982;51.474;7.228;2023-04-01T08:30:20;1.90;;;1.60;;
50968;SDS011;36982;51.474;7.228;2023-04-01T08:32:56;3.23;;;2.20;;
50968;SDS011;36982;51.474;7.228;2023-04-01T08:35:29;2.50;;;2.30;;
50968;SDS011;36982;51.474;7.228;2023-04-01T08:38:00;2.53;;;2.10;;
50968;SDS011;36982;51.474;7.228;2023-04-01T08:40:37;3.03;;;2.60;;
50968;SDS011;36982;51.474;7.228;2023-04-01T09:00:31;5.07;;;3.93;;
50968;SDS011;36982;51.474;7.228;2023-04-01T09:05:48;3.40;;;3.03;;
50968;SDS011;36982;51.474;7.228;2023-04-01T09:08:25;4.43;;;3.33;;
50968;SDS011;36982;51.474;7.228;2023-04-01T09:27:44;5.50;;;4.57;;
50968;SDS011;36982;51.474;7.228;2023-04-01T09:30:32;5.47;;;4.60;;
50968;SDS011;36982;51.474;7.228;2023-04-01T09:33:03;5.53;;;4.73;;
50968;SDS011;36982;51.474;7.228;2023-04-01T09:38:28;6.43;;;5.43;;
50968;SDS011;36982;51.474;7.228;2023-04-01T09:57:28;8.60;;;6.20;;
50968;SDS011;36982;51.474;7.228;2023-04-01T10:44:06;7.83;;;5.80;;
50968;SDS011;36982;51.474;7.228;2023-04-01T11:25:11;10.07;;;7.77;;
50968;SDS011;36982;51.474;7.228;2023-04-01T11:33:00;9.73;;;7.27;;
50968;SDS011;36982;51.474;7.228;2023-04-01T11:35:42;7.13;;;6.03;;
50968;SDS011;36982;51.474;7.228;2023-04-01T11:40:57;10.90;;;7.27;;
50968;SDS011;36982;51.474;7.228;2023-04-01T11:46:41;11.17;;;7.80;;
50968;SDS011;36982;51.474;7.228;2023-04-01T11:58:03;9.73;;;7.30;;
50968;SDS011;36982;51.474;7.228;2023-04-01T12:13:49;9.83;;;7.50;;
50968;SDS011;36982;51.474;7.228;2023-04-01T12:17:25;10.67;;;8.00;;
50968;SDS011;36982;51.474;7.228;2023-04-01T12:31:13;7.00;;;5.63;;
50968;SDS011;36982;51.474;7.228;2023-04-01T12:36:58;7.03;;;5.50;;
50968;SDS011;36982;51.474;7.228;2023-04-01T12:47:32;6.93;;;5.93;;
50968;SDS011;36982;51.474;7.228;2023-04-01T12:55:45;8.37;;;6.63;;
50968;SDS011;36982;51.474;7.228;2023-04-01T13:15:09;10.53;;;8.10;;
50968;SDS011;36982;51.474;7.228;2023-04-01T13:17:53;9.23;;;7.93;;
50968;SDS011;36982;51.474;7.228;2023-04-01T13:39:32;8.23;;;6.37;;
50968;SDS011;36982;51.474;7.228;2023-04-01T13:44:45;7.90;;;6.53;;
50968;SDS011;36982;51.474;7.228;2023-04-01T13:50:07;9.57;;;6.53;;
50968;SDS011;36982;51.474;7.228;2023-04-01T13:53:09;8.50;;;6.40;;
50968;SDS011;36982;51.474;7.228;2023-04-01T13:58:43;7.93;;;5.67;;
50968;SDS011;36982;51.474;7.228;2023-04-01T14:12:43;7.20;;;5.47;;
50968;SDS011;36982;51.474;7.228;2023-04-01T14:23:50;8.13;;;5.83;;
50968;SDS011;36982;51.474;7.228;2023-04-01T14:32:10;8.07;;;6.17;;
50968;SDS011;36982;51.474;7.228;2023-04-01T14:43:14;6.63;;;5.57;;
50968;SDS011;36982;51.474;7.228;2023-04-01T14:46:09;6.77;;;5.57;;
50968;SDS011;36982;51.474;7.228;2023-04-01T14:48:39;7.63;;;5.57;;
50968;SDS011;36982;51.474;7.228;2023-04-01T14:51:31;6.87;;;5.47;;
50968;SDS011;36982;51.474;7.228;2023-04-01T14:54:02;7.83;;;6.43;;
50968;SDS011;36982;51.474;7.228;2023-04-01T14:59:49;7.73;;;6.10;;
50968;SDS011;36982;51.474;7.228;2023-04-01T15:10:12;10.40;;;7.67;;
50968;SDS011;36982;51.474;7.228;2023-04-01T15:19:12;9.60;;;6.63;;
50968;SDS011;36982;51.474;7.228;2023-04-01T15:36:13;9.27;;;7.00;;
50968;SDS011;36982;51.474;7.228;2023-04-01T15:41:28;8.43;;;7.10;;
50968;SDS011;36982;51.474;7.228;2023-04-01T15:44:32;8.30;;;7.03;;
50968;SDS011;36982;51.474;7.228;2023-04-01T15:50:04;8.10;;;7.00;;
50968;SDS011;36982;51.474;7.228;2023-04-01T15:53:13;10.07;;;7.13;;
50968;SDS011;36982;51.474;7.228;2023-04-01T15:59:28;9.30;;;7.27;;
50968;SDS011;36982;51.474;7.228;2023-04-01T16:13:48;8.67;;;6.53;;
50968;SDS011;36982;51.474;7.228;2023-04-01T16:19:51;8.33;;;5.70;;
50968;SDS011;36982;51.474;7.228;2023-04-01T16:22:30;7.73;;;5.37;;
50968;SDS011;36982;51.474;7.228;2023-04-01T16:30:38;6.23;;;4.20;;
50968;SDS011;36982;51.474;7.228;2023-04-01T16:33:17;5.43;;;4.63;;
50968;SDS011;36982;51.474;7.228;2023-04-01T16:35:57;7.57;;;4.63;;
50968;SDS011;36982;51.474;7.228;2023-04-01T16:43:47;6.23;;;5.40;;
50968;SDS011;36982;51.474;7.228;2023-04-01T16:46:35;6.73;;;5.50;;
50968;SDS011;36982;51.474;7.228;2023-04-01T17:03:20;7.17;;;5.57;;
50968;SDS011;36982;51.474;7.228;2023-04-01T17:11:56;7.37;;;6.47;;
50968;SDS011;36982;51.474;7.228;2023-04-01T17:17:18;8.40;;;6.77;;
50968;SDS011;36982;51.474;7.228;2023-04-01T17:27:47;9.73;;;6.87;;
50968;SDS011;36982;51.474;7.228;2023-04-01T17:40:31;8.53;;;6.73;;
50968;SDS011;36982;51.474;7.228;2023-04-01T17:59:57;11.20;;;7.83;;
50968;SDS011;36982;51.474;7.228;2023-04-01T18:02:42;13.07;;;9.17;;
50968;SDS011;36982;51.474;7.228;2023-04-01T18:16:30;14.10;;;9.87;;
50968;SDS011;36982;51.474;7.228;2023-04-01T18:19:09;13.80;;;9.53;;
50968;SDS011;36982;51.474;7.228;2023-04-01T18:21:50;11.10;;;9.17;;
50968;SDS011;36982;51.474;7.228;2023-04-01T18:25:05;15.40;;;10.47;;
50968;SDS011;36982;51.474;7.228;2023-04-01T18:27:29;17.03;;;10.40;;
50968;SDS011;36982;51.474;7.228;2023-04-01T18:32:48;15.17;;;11.20;;
50968;SDS011;36982;51.474;7.228;2023-04-01T18:35:24;14.57;;;10.47;;
50968;SDS011;36982;51.474;7.228;2023-04-01T18:38:06;16.23;;;11.23;;
50968;SDS011;36982;51.474;7.228;2023-04-01T18:40:43;14.90;;;11.10;;
50968;SDS011;36982;51.474;7.228;2023-04-01T18:43:21;15.30;;;11.13;;
50968;SDS011;36982;51.474;7.228;2023-04-01T18:45:58;15.03;;;11.23;;
50968;SDS011;36982;51.474;7.228;2023-04-01T18:51:10;16.27;;;11.17;;
50968;SDS011;36982;51.474;7.228;2023-04-01T18:53:54;14.50;;;11.13;;
50968;SDS011;36982;51.474;7.228;2023-04-01T18:59:45;12.90;;;10.43;;
50968;SDS011;36982;51.474;7.228;2023-04-01T19:07:46;16.77;;;10.23;;
50968;SDS011;36982;51.474;7.228;2023-04-01T19:38:52;5.90;;;4.17;;
50968;SDS011;36982;51.474;7.228;2023-04-01T19:41:25;4.67;;;4.17;;
50968;SDS011;36982;51.474;7.228;2023-04-01T19:46:53;4.03;;;3.63;;
50968;SDS011;36982;51.474;7.228;2023-04-01T19:52:27;4.63;;;4.07;;
50968;SDS011;36982;51.474;7.228;2023-04-01T19:55:06;5.07;;;4.57;;
50968;SDS011;36982;51.474;7.228;2023-04-01T20:00:52;3.30;;;2.83;;
50968;SDS011;36982;51.474;7.228;2023-04-01T20:06:17;3.20;;;2.80;;
50968;SDS011;36982;51.474;7.228;2023-04-01T20:44:52;4.33;;;2.47;;
50968;SDS011;36982;51.474;7.228;2023-04-01T20:50:58;3.77;;;3.27;;
50968;SDS011;36982;51.474;7.228;2023-04-01T20:53:34;4.33;;;3.93;;
50968;SDS011;36982;51.474;7.228;2023-04-01T20:58:52;4.90;;;4.27;;
50968;SDS011;36982;51.474;7.228;2023-04-01T21:01:51;5.40;;;4.50;;
50968;SDS011;36982;51.474;7.228;2023-04-01T21:10:05;4.97;;;4.47;;
50968;SDS011;36982;51.474;7.228;2023-04-01T21:15:33;4.73;;;4.03;;
50968;SDS011;36982;51.474;7.228;2023-04-01T21:28:50;6.20;;;4.63;;
50968;SDS011;36982;51.474;7.228;2023-04-01T21:36:36;4.53;;;3.73;;
50968;SDS011;36982;51.474;7.228;2023-04-01T21:42:23;3.13;;;2.70;;
50968;SDS011;36982;51.474;7.228;2023-04-01T21:59:28;5.40;;;4.77;;
50968;SDS011;36982;51.474;7.228;2023-04-01T22:06:02;4.13;;;3.27;;
50968;SDS011;36982;51.474;7.228;2023-04-01T22:10:44;5.93;;;5.13;;
50968;SDS011;36982;51.474;7.228;2023-04-01T22:13:18;7.50;;;5.83;;
50968;SDS011;36982;51.474;7.228;2023-04-01T22:15:57;7.00;;;5.67;;
50968;SDS011;36982;51.474;7.228;2023-04-01T22:22:13;6.27;;;5.43;;
50968;SDS011;36982;51.474;7.228;2023-04-01T22:33:05;4.80;;;3.87;;
50968;SDS011;36982;51.474;7.228;2023-04-01T22:41:05;6.30;;;5.30;;
50968;SDS011;36982;51.474;7.228;2023-04-01T22:43:43;8.10;;;5.90;;
50968;SDS011;36982;51.474;7.228;2023-04-01T22:49:08;7.43;;;5.17;;
50968;SDS011;36982;51.474;7.228;2023-04-01T22:56:48;8.80;;;5.87;;
50968;SDS011;36982;51.474;7.228;2023-04-01T23:05:00;6.80;;;5.93;;
50968;SDS011;36982;51.474;7.228;2023-04-01T23:10:02;6.30;;;5.67;;
50968;SDS011;36982;51.474;7.228;2023-04-01T23:12:31;4.97;;;3.83;;
50968;SDS011;36982;51.474;7.228;2023-04-01T23:14:58;6.30;;;5.20;;
50968;SDS011;36982;51.474;7.228;2023-04-01T23:20:02;6.50;;;5.70;;
50968;SDS011;36982;51.474;7.228;2023-04-01T23:35:47;6.63;;;5.60;;
50968;SDS011;36982;51.474;7.228;2023-04-01T23:38:36;4.60;;;3.37;;
50968;SDS011;36982;51.474;7.228;2023-04-01T23:41:03;5.37;;;4.80;;
50968;SDS011;36982;51.474;7.228;2023-04-01T23:43:31;6.67;;;5.80;;
50968;SDS011;36982;51.474;7.228;2023-04-01T23:46:02;6.37;;;5.23;;
50968;SDS011;36982;51.474;7.228;2023-04-01T23:48:40;6.30;;;5.40;;
50968;SDS011;36982;51.474;7.228;2023-04-01T23:51:13;9.17;;;6.63;;
50968;SDS011;36982;51.474;7.228;2023-04-01T23:53:45;7.50;;;6.20;;
50968;SDS011;36982;51.474;7.228;2023-04-01T23:56:15;6.63;;;5.43;;
50968;SDS011;36982;51.474;7.228;2023-04-01T23:58:47;8.17;;;6.43;;
